Terminal Aerodrome Forecast
Issued by NWS

Home | Current Version | Previous Version | Graphics & Text | Print | Product List | Glossary On
Versions: 1 2 3 4 5 6 7 8 9 10 11 12 13 14 15 16 17 18 19
000
FTUS43 KMPX 021812 AAA
TAFRNH
TAF AMD
KRNH 021812Z 0218/0318 10007KT P6SM BKN005 OVC035
     FM021930 11007KT P6SM SCT015 BKN035
      TEMPO 0220/0223 BKN015 BKN035
     FM030000 11005KT P6SM SCT040
     FM030500 11004KT 5SM BR FEW008
     FM030700 11004KT 2SM BR OVC006
     FM031500 13006KT P6SM SCT008 BKN015=

USA.gov is the U.S. government's official web portal to all federal, state and local government web resources and services.